Terminal Aerodrome Forecast
Issued by NWS Tampa Bay Area, FL

Home | Current Version | Previous Version | Text Only | Print | Product List | Glossary On
Versions: 1 2 3 4 5 6 7 8 9 10 11 12 13 14 15 16
000
FTUS42 KTBW 021800 AAA
TAFFMY
TAF AMD
KFMY 021820Z 0218/0318 12007KT P6SM VCTS SCT050CB BKN150
      TEMPO 0218/0221 VRB12G25KT 3SM TSRA BKN030CB
     FM030000 08004KT P6SM FEW050 SCT250
     FM031400 09006KT P6SM SCT030 SCT100=

USA.gov is the U.S. government's official web portal to all federal, state and local government web resources and services.